Flight Track Log - Related Links

Times and Time Zones

All times are in EDT time to prevent confusion due to time zone crossing. See the AAL2360 flight status page for this flight to view local times or setup timezone preferences in your user account.

Time Position Orientation Groundspeed Altitude Reporting Facility
EDT Latitude Longitude Course Direction KTS MPH feet Rate Location/Type
Thu 04:25:57 PM 32.9167 -97.0333 332° Northwest 178 205 1,700  Level Dallas / Fort Worth TRACON
Thu 04:26:57 PM 32.9667 -97.0167 16° North 210 242 4,300 2,355 Climbing Dallas / Fort Worth TRACON
Thu 04:28:00 PM 32.8971 -96.8000 North  Level FlightAware Approximate
Thu 04:29:00 PM 33.0248 -96.8311 328° Northwest  Level FlightAware Approximate
Thu 04:29:03 PM 33.1144 -96.9644 16° North 261 300 9,000  Level Fort Worth Center
Thu 04:30:00 PM 33.1442 -96.9065 333° Northwest  Level FlightAware Approximate
Thu 04:30:03 PM 33.1914 -96.9319 19° North 302 348 10,800  Level Fort Worth Center
Thu 04:31:00 PM 33.2646 -96.9799 332° Northwest  Level FlightAware Approximate
Thu 04:31:03 PM 33.3019 -96.8864 19° North 349 402 12,600  Level Fort Worth Center
Thu 04:32:03 PM 33.4000 -96.8461 19° North 399 459 14,000 1,850 Climbing Fort Worth Center
Thu 04:33:03 PM 33.5228 -96.7756 26° Northeast 432 497 16,300 2,100 Climbing Fort Worth Center
Thu 04:34:03 PM 33.6267 -96.7100 28° Northeast 449 517 18,200 1,950 Climbing Fort Worth Center
Thu 04:35:03 PM 33.7556 -96.6264 28° Northeast 470 541 20,200 1,850 Climbing Fort Worth Center
Thu 04:36:03 PM 33.8803 -96.5503 27° Northeast 482 555 21,900 1,700 Climbing Fort Worth Center
Thu 04:37:03 PM 34.0028 -96.4714 28° Northeast 488 562 23,600 1,600 Climbing Fort Worth Center
Thu 04:38:03 PM 34.1211 -96.3825 32° Northeast 496 571 25,100 1,400 Climbing Fort Worth Center
Thu 04:39:03 PM 34.2433 -96.2831 34° Northeast 509 586 26,400 1,200 Climbing Fort Worth Center
Thu 04:40:03 PM 34.3675 -96.1781 35° Northeast 525 604 27,500 1,300 Climbing Fort Worth Center
Thu 04:41:03 PM 34.4958 -96.0756 33° Northeast 539 620 29,000 1,300 Climbing Fort Worth Center
Thu 04:42:03 PM 34.6219 -95.9700 35° Northeast 544 626 30,100 1,100 Climbing Fort Worth Center
Thu 04:43:03 PM 34.7522 -95.8617 34° Northeast 555 639 31,200 950 Climbing Fort Worth Center
Thu 04:44:03 PM 34.8781 -95.7531 35° Northeast 555 639 32,000 850 Climbing Fort Worth Center
Thu 04:45:03 PM 35.0036 -95.6392 37° Northeast 560 644 32,900 500 Climbing Fort Worth Center
Thu 04:46:03 PM 35.1292 -95.5197 38° Northeast 566 651 33,000 34 Climbing Fort Worth Center
Thu 04:48:00 PM 35.3444 -95.3158 38° Northeast 562 647 33,000  Level Kansas City Center
Thu 04:48:53 PM 35.4681 -95.2006 37° Northeast 570 656 33,000  Level Memphis Center
Thu 04:49:53 PM 35.5894 -95.0825 38° Northeast 565 650 33,000  Level Memphis Center
Thu 04:50:53 PM 35.7108 -94.9642 38° Northeast 557 641 33,000  Level Memphis Center
Thu 04:51:53 PM 35.8339 -94.8456 38° Northeast 557 641 33,000  Level Memphis Center
Thu 04:52:53 PM 35.9547 -94.7292 38° Northeast 557 641 33,000  Level Memphis Center
Thu 04:53:53 PM 36.0758 -94.6097 39° Northeast 557 641 33,000  Level Memphis Center
Thu 04:54:53 PM 36.1986 -94.4900 38° Northeast 557 641 33,000  Level Memphis Center
Thu 04:57:17 PM 36.4881 -94.2039 38° Northeast 555 639 33,000  Level Kansas City Center
Thu 04:58:17 PM 36.6089 -94.0861 38° Northeast 553 636 33,000  Level Kansas City Center
Thu 04:59:22 PM 36.7297 -93.9661 39° Northeast 554 638 33,000  Level Kansas City Center
Thu 05:00:22 PM 36.8494 -93.8469 39° Northeast 552 635 33,000  Level Kansas City Center
Thu 05:01:24 PM 36.9817 -93.7131 39° Northeast 545 627 33,000  Level Kansas City Center
Thu 05:02:25 PM 37.1000 -93.5919 39° Northeast 546 628 33,000  Level Kansas City Center
Thu 05:03:29 PM 37.2183 -93.4733 39° Northeast 543 625 33,000  Level Kansas City Center
Thu 05:04:29 PM 37.3381 -93.3561 38° Northeast 542 624 33,000  Level Kansas City Center
Thu 05:05:33 PM 37.4586 -93.2400 37° Northeast 543 625 33,000  Level Kansas City Center
Thu 05:06:34 PM 37.6061 -93.1064 36° Northeast 541 623 33,000  Level Kansas City Center
Thu 05:07:36 PM 37.7308 -92.9978 35° Northeast 540 621 33,000  Level Kansas City Center
Thu 05:08:37 PM 37.8725 -92.9331 20° North 533 613 33,000  Level Kansas City Center
Thu 05:09:41 PM 38.0147 -92.8669 20° North 536 617 33,000  Level Kansas City Center
Thu 05:10:42 PM 38.1561 -92.7950 22° Northeast 537 618 33,000  Level Kansas City Center
Thu 05:11:42 PM 38.3003 -92.7317 19° North 539 620 33,000  Level Kansas City Center
Thu 05:12:46 PM 38.4411 -92.6633 21° North 535 616 33,000  Level Kansas City Center
Thu 05:13:46 PM 38.5642 -92.5517 35° Northeast 544 626 33,000  Level Kansas City Center
Thu 05:14:50 PM 38.6714 -92.4133 45° Northeast 542 624 33,000  Level Kansas City Center
Thu 05:15:51 PM 38.7786 -92.2781 45° Northeast 539 620 33,000  Level Kansas City Center
Thu 05:16:54 PM 38.8869 -92.1442 44° Northeast 538 619 33,000  Level Kansas City Center
Thu 05:17:56 PM 39.0144 -91.9800 45° Northeast 537 618 33,000  Level Kansas City Center
Thu 05:18:56 PM 39.1194 -91.8444 45° Northeast 534 615 33,000  Level Kansas City Center
Thu 05:20:00 PM 39.2242 -91.7100 45° Northeast 532 612 33,000  Level Kansas City Center
Thu 05:21:00 PM 39.3275 -91.5769 45° Northeast 531 611 33,000  Level Kansas City Center
Thu 05:22:04 PM 39.4308 -91.4442 45° Northeast 527 606 33,000  Level Kansas City Center
Thu 05:23:04 PM 39.5333 -91.3103 45° Northeast 524 603 33,000  Level Kansas City Center
Thu 05:24:07 PM 39.6364 -91.1744 45° Northeast 525 604 33,000  Level Kansas City Center
Thu 05:25:07 PM 39.7603 -91.0281 42° Northeast 529 609 33,000  Level Kansas City Center
Thu 05:26:11 PM 39.8800 -90.9108 37° Northeast 540 621 33,000  Level Kansas City Center
Thu 05:27:12 PM 40.0008 -90.7869 38° Northeast 548 631 33,000  Level Kansas City Center
Thu 05:28:16 PM 40.1222 -90.6642 38° Northeast 550 633 33,000  Level Kansas City Center
Thu 05:28:57 PM 40.2186 -90.5653 38° Northeast 550 633 33,000  Level Chicago Center
Thu 05:29:59 PM 40.3389 -90.4422 38° Northeast 548 631 33,000  Level Chicago Center
Thu 05:31:00 PM 40.4603 -90.3181 38° Northeast 550 633 33,000 -439 Level Chicago Center
Thu 05:32:02 PM 40.5983 -90.1772 38° Northeast 547 629 32,100 -1,210 Descending Chicago Center
Thu 05:33:04 PM 40.7194 -90.0525 38° Northeast 552 635 30,500 -1,548 Descending Chicago Center
Thu 05:34:06 PM 40.8406 -89.9267 38° Northeast 555 639 28,900 -1,500 Descending Chicago Center
Thu 05:35:08 PM 40.9550 -89.8039 39° Northeast 536 617 27,400 -1,610 Descending Chicago Center
Thu 05:36:09 PM 41.0842 -89.6700 38° Northeast 519 597 25,600 -1,756 Descending Chicago Center
Thu 05:37:11 PM 41.1800 -89.5378 46° Northeast 510 587 23,800 -2,081 Descending Chicago Center
Thu 05:38:13 PM 41.2428 -89.3864 61° Northeast 476 548 21,300 -2,516 Descending Chicago Center
Thu 05:39:15 PM 41.3039 -89.2331 62° Northeast 470 541 18,600 -2,613 Descending Chicago Center
Thu 05:40:17 PM 41.3644 -89.0808 62° Northeast 456 525 15,900 -2,129 Descending Chicago Center
Thu 05:41:19 PM 41.4197 -88.9414 62° Northeast 430 495 14,200 -1,887 Descending Chicago Center
Thu 05:42:21 PM 41.4717 -88.8108 62° Northeast 406 467 12,000 -1,561 Descending Chicago Center
Thu 05:43:22 PM 41.5208 -88.6872 62° Northeast 384 442 11,000 -976 Descending Chicago Center
Thu 05:44:24 PM 41.5753 -88.5453 63° Northeast 362 417 10,000 -484 Descending Chicago Center
Thu 05:45:26 PM 41.6244 -88.4386 58° Northeast 344 396 10,000  Level Chicago Center
Thu 05:46:28 PM 41.6814 -88.3414 52° Northeast 335 386 10,000 -532 Level Chicago Center
Thu 05:47:30 PM 41.7378 -88.2442 52° Northeast 331 381 8,900 -1,258 Descending Chicago Center
Thu 05:48:32 PM 41.7956 -88.1461 52° Northeast 333 383 7,400 -919 Descending Chicago Center
Thu 05:49:34 PM 41.8822 -88.1203 13° North 331 381 7,000 -194 Descending Chicago Center
Thu 05:50:36 PM 41.9711 -88.1211 360° North 321 369 7,000 -581 Level Chicago Center
Thu 05:51:38 PM 42.0500 -88.1686 336° Northwest 275 316 5,800 -1,268 Descending Chicago Center
Thu 05:52:39 PM 42.1158 -88.1708 359° North 282 325 4,400 -1,171 Descending Chicago Center
Thu 05:53:41 PM 42.1369 -88.0986 68° East 257 296 3,400 -689 Descending Chicago Center
Thu 05:54:41 PM 42.1000 -88.0500 136° Southeast 155 178 3,000 -400 Descending Chicago TRACON

Login

Don't have an account? Register now (free) for customized features, flight alerts, and more!